Time;durP1;ratioP1;P1;durP2;ratioP2;P2;SDS_P1;SDS_P2;PMS_P1;PMS_P2;Temp;Humidity;BMP_temperature;BMP_pressure;BME280_temperature;BME280_humidity;BME280_pressure;Samples;Min_cycle;Max_cycle;Signal;HPM_P1;HPM_P2
2022/03/06 00:00:44;;;;;;;28.20;13.55;;;5.80;55.00;;;;;;5113384;28;20024;-66
2022/03/06 00:03:10;;;;;;;28.67;13.73;;;5.80;55.20;;;;;;5113430;28;20027;-66
2022/03/06 00:05:36;;;;;;;31.75;14.25;;;5.90;55.20;;;;;;5095419;28;20033;-66
2022/03/06 00:08:02;;;;;;;35.95;14.00;;;5.90;54.90;;;;;;5113297;28;20028;-66
2022/03/06 00:10:29;;;;;;;29.63;12.55;;;5.90;54.80;;;;;;5113244;28;20042;-66
2022/03/06 00:12:55;;;;;;;33.20;14.63;;;5.90;54.50;;;;;;5113235;28;20079;-66
2022/03/06 00:15:22;;;;;;;31.15;13.75;;;5.90;54.50;;;;;;5113247;28;20166;-66
2022/03/06 00:17:49;;;;;;;33.85;14.43;;;5.90;54.70;;;;;;5113207;28;20024;-65
2022/03/06 00:20:15;;;;;;;27.48;12.93;;;5.90;54.60;;;;;;5113224;28;20028;-66
2022/03/06 00:22:41;;;;;;;28.27;12.80;;;5.80;54.50;;;;;;5113224;28;20032;-65
2022/03/06 00:25:08;;;;;;;32.08;13.77;;;5.80;54.80;;;;;;5112987;28;20028;-66
2022/03/06 00:27:34;;;;;;;27.08;13.23;;;5.70;54.90;;;;;;5116466;28;20111;-66
2022/03/06 00:30:00;;;;;;;28.88;13.05;;;5.80;54.90;;;;;;5117139;28;20016;-66
2022/03/06 00:32:25;;;;;;;24.10;12.63;;;5.80;55.00;;;;;;5117102;28;20051;-66
2022/03/06 00:34:51;;;;;;;29.33;13.15;;;5.70;55.00;;;;;;5117035;28;20024;-66
2022/03/06 00:37:17;;;;;;;32.78;13.05;;;5.70;55.20;;;;;;5098979;28;20048;-66
2022/03/06 00:39:44;;;;;;;29.00;12.32;;;5.70;56.10;;;;;;5116963;28;20032;-66
2022/03/06 00:42:10;;;;;;;28.63;12.98;;;5.70;55.10;;;;;;5116939;28;20051;-66
2022/03/06 00:44:37;;;;;;;26.88;13.40;;;5.60;55.20;;;;;;5116993;28;20047;-66
2022/03/06 00:47:03;;;;;;;30.65;14.38;;;5.60;55.30;;;;;;5116728;28;20096;-66
2022/03/06 00:49:29;;;;;;;30.67;14.32;;;5.60;55.40;;;;;;5116745;28;20028;-66
2022/03/06 00:51:55;;;;;;;28.95;13.25;;;5.60;55.40;;;;;;5116565;28;20104;-66
2022/03/06 00:54:21;;;;;;;26.80;13.50;;;5.60;55.40;;;;;;5116742;28;20085;-66
2022/03/06 00:56:47;;;;;;;27.83;12.10;;;5.60;55.40;;;;;;5116637;28;20024;-66
2022/03/06 00:59:14;;;;;;;28.27;13.10;;;5.60;55.40;;;;;;5116727;28;20075;-66
2022/03/06 01:01:40;;;;;;;32.15;13.95;;;5.60;55.20;;;;;;5116535;28;20475;-66
2022/03/06 01:04:06;;;;;;;26.55;12.80;;;5.60;55.10;;;;;;5116507;28;20024;-66
2022/03/06 01:06:32;;;;;;;31.42;13.43;;;5.60;55.20;;;;;;5116430;28;20024;-66
2022/03/06 01:08:58;;;;;;;28.20;13.80;;;5.50;55.10;;;;;;5116520;28;20036;-66
2022/03/06 01:11:24;;;;;;;28.67;13.40;;;5.50;55.30;;;;;;5116375;28;20032;-66
2022/03/06 01:13:49;;;;;;;29.35;13.10;;;5.50;55.30;;;;;;5116304;28;20028;-66
2022/03/06 01:16:15;;;;;;;31.33;14.02;;;5.50;55.50;;;;;;5098397;28;20036;-66
2022/03/06 01:18:41;;;;;;;31.08;14.63;;;5.40;56.50;;;;;;5116218;28;20032;-66
2022/03/06 01:21:06;;;;;;;32.00;14.20;;;5.40;55.80;;;;;;5116176;28;20036;-66
2022/03/06 01:23:32;;;;;;;29.02;13.63;;;5.40;55.90;;;;;;5116109;28;20036;-66
2022/03/06 01:25:58;;;;;;;28.52;13.50;;;5.30;56.20;;;;;;5115918;28;20028;-65
2022/03/06 01:28:24;;;;;;;28.27;13.98;;;5.30;56.20;;;;;;5116061;28;20099;-65
2022/03/06 01:30:50;;;;;;;31.55;13.93;;;5.30;56.20;;;;;;5115984;28;20016;-66
2022/03/06 01:33:16;;;;;;;31.35;13.57;;;5.30;56.10;;;;;;5115931;28;20050;-66
2022/03/06 01:35:42;;;;;;;28.88;13.77;;;5.20;56.10;;;;;;5116065;28;20036;-66
2022/03/06 01:38:07;;;;;;;32.80;14.02;;;5.20;56.40;;;;;;5097243;28;20046;-66
2022/03/06 01:40:33;;;;;;;30.95;13.27;;;5.20;56.60;;;;;;5115809;28;20028;-66
2022/03/06 01:42:59;;;;;;;33.80;14.52;;;5.20;56.60;;;;;;5115774;28;20020;-66
2022/03/06 01:45:24;;;;;;;28.40;12.55;;;5.10;56.80;;;;;;5115645;28;20036;-66
2022/03/06 01:47:53;;;;;;;32.83;13.18;;;5.10;56.90;;;;;;5115651;28;20031;-66
2022/03/06 01:50:23;;;;;;;27.25;13.35;;;5.10;56.90;;;;;;5115495;28;20016;-66
2022/03/06 01:52:50;;;;;;;35.45;13.07;;;5.20;56.90;;;;;;5115459;28;20062;-66
2022/03/06 01:55:18;;;;;;;31.88;12.98;;;5.10;57.00;;;;;;5115544;28;20031;-66
2022/03/06 01:57:45;;;;;;;29.77;13.30;;;5.10;57.20;;;;;;5115488;28;20020;-66
2022/03/06 02:00:18;;;;;;;30.40;13.00;;;5.10;57.20;;;;;;5115454;28;20016;-66
2022/03/06 02:02:43;;;;;;;;;;;5.10;57.20;;;;;;5115795;28;20028;-66
2022/03/06 02:05:09;;;;;;;31.70;12.95;;;5.00;57.30;;;;;;5115270;28;19936;-66
2022/03/06 02:07:35;;;;;;;24.58;11.80;;;5.00;57.40;;;;;;5115319;28;20024;-66
2022/03/06 02:10:02;;;;;;;29.45;12.77;;;5.00;57.50;;;;;;5115339;28;20035;-66
2022/03/06 02:12:28;;;;;;;28.95;12.57;;;5.00;57.60;;;;;;5115179;28;20020;-66
2022/03/06 02:14:57;;;;;;;27.08;12.02;;;5.00;57.60;;;;;;5115168;28;20020;-66
2022/03/06 02:17:24;;;;;;;28.05;12.05;;;4.90;57.70;;;;;;5115109;28;20024;-66
2022/03/06 02:20:00;;;;;;;25.65;12.45;;;4.90;57.80;;;;;;5097096;28;20020;-66
2022/03/06 02:22:32;;;;;;;25.77;11.77;;;4.90;58.00;;;;;;5115035;28;20083;-66
2022/03/06 02:24:59;;;;;;;26.38;12.82;;;4.80;58.20;;;;;;5115010;28;20031;-66
2022/03/06 02:27:26;;;;;;;26.00;11.77;;;4.70;58.30;;;;;;5114799;28;20035;-65
2022/03/06 02:29:52;;;;;;;23.10;11.73;;;4.70;58.60;;;;;;5114850;28;20016;-65
2022/03/06 02:32:20;;;;;;;26.10;11.77;;;4.70;58.60;;;;;;5114801;28;20473;-66
2022/03/06 02:34:47;;;;;;;28.38;11.73;;;4.70;58.70;;;;;;5114736;28;20016;-65
2022/03/06 02:37:14;;;;;;;25.55;12.13;;;4.70;58.40;;;;;;5114707;28;20027;-66
2022/03/06 02:39:43;;;;;;;28.98;12.75;;;4.70;58.40;;;;;;5114633;28;20074;-65
2022/03/06 02:42:10;;;;;;;28.23;12.30;;;4.70;58.40;;;;;;5114606;28;20021;-65
2022/03/06 02:44:36;;;;;;;26.35;11.40;;;4.70;58.40;;;;;;5114550;28;20024;-66
2022/03/06 02:47:03;;;;;;;24.25;11.73;;;4.60;58.50;;;;;;5114443;28;20084;-65
2022/03/06 02:49:29;;;;;;;25.55;11.68;;;4.60;58.90;;;;;;5114469;28;20024;-65
2022/03/06 02:51:54;;;;;;;26.88;11.63;;;4.50;58.90;;;;;;5114238;28;20056;-66
2022/03/06 02:54:20;;;;;;;22.60;11.20;;;4.50;58.80;;;;;;5114406;28;20024;-66
2022/03/06 02:56:50;;;;;;;26.33;12.13;;;4.50;59.20;;;;;;5114358;28;20036;-66
2022/03/06 02:59:16;;;;;;;23.38;11.70;;;4.50;59.10;;;;;;5114310;28;20028;-66
2022/03/06 03:01:42;;;;;;;22.85;11.00;;;4.40;59.30;;;;;;5114264;28;20028;-66
2022/03/06 03:04:11;;;;;;;25.27;11.48;;;4.30;59.40;;;;;;5114211;28;20020;-66
2022/03/06 03:06:38;;;;;;;25.30;11.80;;;4.30;59.70;;;;;;5114082;28;20039;-66
2022/03/06 03:09:05;;;;;;;24.85;11.18;;;4.40;59.80;;;;;;5114115;28;20024;-66
2022/03/06 03:11:31;;;;;;;21.35;10.40;;;4.40;59.70;;;;;;5114050;28;20020;-66
2022/03/06 03:13:58;;;;;;;22.67;10.68;;;4.40;59.50;;;;;;5114039;28;20049;-66
2022/03/06 03:16:24;;;;;;;25.55;12.32;;;4.50;59.40;;;;;;5114017;28;20028;-66
2022/03/06 03:18:50;;;;;;;25.52;11.63;;;4.40;59.50;;;;;;5113970;28;20034;-66
2022/03/06 03:21:15;;;;;;;25.88;11.57;;;4.40;59.40;;;;;;5113910;28;20028;-66
2022/03/06 03:23:41;;;;;;;26.15;11.85;;;4.40;59.60;;;;;;5113826;28;20046;-65
2022/03/06 03:26:06;;;;;;;23.75;12.13;;;4.40;59.80;;;;;;5113796;28;20059;-65
2022/03/06 03:28:32;;;;;;;25.90;11.25;;;4.30;59.60;;;;;;5113789;28;20032;-66
2022/03/06 03:30:58;;;;;;;24.23;11.85;;;4.30;59.80;;;;;;5113754;28;20040;-65
2022/03/06 03:33:23;;;;;;;26.10;11.48;;;4.30;59.80;;;;;;5113730;28;20032;-66
2022/03/06 03:35:49;;;;;;;23.05;10.77;;;4.20;59.90;;;;;;5113668;28;20032;-66
2022/03/06 03:38:14;;;;;;;23.17;10.77;;;4.20;60.00;;;;;;5113668;28;20032;-65
2022/03/06 03:40:40;;;;;;;22.98;12.07;;;4.20;60.10;;;;;;5113634;28;20024;-66
2022/03/06 03:43:06;;;;;;;21.30;11.27;;;4.20;60.10;;;;;;5113592;28;20032;-66
2022/03/06 03:45:32;;;;;;;22.13;11.00;;;4.20;59.90;;;;;;5113504;28;20028;-65
2022/03/06 03:47:57;;;;;;;22.92;10.38;;;4.10;60.10;;;;;;5113666;28;20054;-66
2022/03/06 03:50:23;;;;;;;22.92;11.68;;;4.10;60.20;;;;;;5113522;28;20024;-66
2022/03/06 03:52:49;;;;;;;23.20;10.80;;;4.10;60.30;;;;;;5113323;28;20059;-66
2022/03/06 03:55:15;;;;;;;28.75;12.80;;;4.10;60.40;;;;;;5113442;28;20036;-65
2022/03/06 03:57:41;;;;;;;23.67;11.32;;;4.00;60.70;;;;;;5095615;28;20054;-65
2022/03/06 04:00:07;;;;;;;22.55;10.73;;;4.00;60.70;;;;;;5113388;28;20108;-66
2022/03/06 04:02:33;;;;;;;22.08;11.23;;;4.00;60.60;;;;;;5112892;28;20020;-66
2022/03/06 04:04:58;;;;;;;20.52;10.98;;;4.00;60.60;;;;;;5113350;28;20024;-66
2022/03/06 04:07:24;;;;;;;21.80;11.23;;;4.00;60.60;;;;;;5095466;28;20042;-65
2022/03/06 04:09:50;;;;;;;21.77;11.88;;;4.00;60.70;;;;;;5113327;28;20028;-65
2022/03/06 04:12:16;;;;;;;23.25;11.32;;;4.00;60.80;;;;;;5113300;28;20172;-66
2022/03/06 04:14:41;;;;;;;22.38;11.65;;;4.00;60.80;;;;;;5113244;28;20076;-66
2022/03/06 04:17:07;;;;;;;21.63;11.52;;;4.00;60.80;;;;;;5113215;28;20036;-66
2022/03/06 04:19:33;;;;;;;24.48;11.55;;;3.90;60.90;;;;;;5113227;28;20048;-65
2022/03/06 04:21:58;;;;;;;24.80;12.13;;;3.90;60.80;;;;;;5113202;28;20032;-66
2022/03/06 04:24:24;;;;;;;21.52;11.52;;;3.90;61.00;;;;;;5113106;28;20028;-65
2022/03/06 04:26:49;;;;;;;21.10;11.25;;;3.90;60.90;;;;;;5095361;28;20032;-65
2022/03/06 04:29:16;;;;;;;22.38;11.30;;;3.80;61.10;;;;;;5113147;28;20036;-65
2022/03/06 04:31:41;;;;;;;23.60;11.40;;;3.90;61.20;;;;;;5113101;28;20016;-66
2022/03/06 04:34:08;;;;;;;19.92;10.98;;;3.90;61.20;;;;;;5113097;28;20029;-66
2022/03/06 04:36:33;;;;;;;23.25;10.80;;;3.90;61.00;;;;;;5113095;28;20111;-65
2022/03/06 04:38:59;;;;;;;20.08;10.57;;;3.90;61.00;;;;;;5113018;28;20024;-65
2022/03/06 04:41:25;;;;;;;23.10;11.48;;;3.80;60.80;;;;;;5113150;28;20483;-65
2022/03/06 04:43:52;;;;;;;20.30;11.30;;;3.80;62.00;;;;;;5112997;28;20028;-66
2022/03/06 04:46:18;;;;;;;24.50;11.38;;;3.70;61.30;;;;;;5112897;28;20055;-66
2022/03/06 04:48:44;;;;;;;23.52;11.38;;;3.80;61.40;;;;;;5112968;28;20024;-65
2022/03/06 04:51:10;;;;;;;23.88;11.27;;;3.80;61.40;;;;;;5112844;28;20050;-66
2022/03/06 04:53:36;;;;;;;21.75;11.45;;;3.80;61.30;;;;;;5112917;28;20039;-65
2022/03/06 04:56:03;;;;;;;23.90;11.32;;;3.80;61.30;;;;;;5112941;28;20027;-65
2022/03/06 04:58:29;;;;;;;21.00;10.43;;;3.80;61.20;;;;;;5112920;28;20021;-65
2022/03/06 05:00:55;;;;;;;22.42;10.68;;;3.80;61.80;;;;;;5112864;28;20024;-66
2022/03/06 05:03:20;;;;;;;18.92;10.50;;;3.80;61.10;;;;;;5112803;28;20053;-65
2022/03/06 05:05:46;;;;;;;19.52;10.38;;;3.70;61.10;;;;;;5112700;28;20040;-66
2022/03/06 05:08:12;;;;;;;19.73;10.75;;;3.70;61.10;;;;;;5112797;28;20044;-65
2022/03/06 05:10:38;;;;;;;23.00;11.95;;;3.80;61.20;;;;;;5112754;28;20039;-65
2022/03/06 05:13:04;;;;;;;21.90;11.18;;;3.70;61.00;;;;;;5113457;28;20049;-65
2022/03/06 05:15:30;;;;;;;23.05;11.32;;;3.70;61.10;;;;;;5116424;28;20111;-65
2022/03/06 05:17:56;;;;;;;19.52;10.70;;;3.60;61.20;;;;;;5098559;28;20039;-65
2022/03/06 05:20:22;;;;;;;23.25;11.13;;;3.60;61.20;;;;;;5116297;28;20047;-65
2022/03/06 05:22:48;;;;;;;21.80;10.65;;;3.60;61.30;;;;;;5116245;28;20016;-65
2022/03/06 05:25:14;;;;;;;24.00;11.52;;;3.70;61.20;;;;;;5098195;28;20034;-66
2022/03/06 05:27:40;;;;;;;22.13;11.73;;;3.70;61.10;;;;;;5116124;28;20016;-65
2022/03/06 05:30:08;;;;;;;21.70;11.65;;;3.70;61.00;;;;;;5116055;28;20016;-65
2022/03/06 05:32:34;;;;;;;20.77;11.18;;;3.70;61.00;;;;;;5116018;28;20039;-65
2022/03/06 05:34:59;;;;;;;21.10;11.15;;;3.70;60.90;;;;;;5115968;28;20024;-66
2022/03/06 05:37:25;;;;;;;19.52;10.48;;;3.70;61.00;;;;;;5115942;28;20036;-65
2022/03/06 05:39:50;;;;;;;22.10;11.18;;;3.60;60.80;;;;;;5115899;28;20028;-66
2022/03/06 05:42:17;;;;;;;22.38;10.95;;;3.60;60.80;;;;;;5115831;28;20024;-65
2022/03/06 05:44:42;;;;;;;23.20;11.40;;;3.60;60.90;;;;;;5115799;28;20028;-65
2022/03/06 05:47:09;;;;;;;21.50;11.80;;;3.60;60.80;;;;;;5115812;28;20087;-65
2022/03/06 05:49:34;;;;;;;22.35;11.13;;;3.60;60.80;;;;;;5115718;28;20021;-65
2022/03/06 05:52:02;;;;;;;24.92;11.77;;;3.50;61.00;;;;;;5115477;28;20074;-66
2022/03/06 05:54:28;;;;;;;22.02;11.90;;;3.50;60.90;;;;;;5115621;28;20021;-65
2022/03/06 05:56:54;;;;;;;24.35;11.68;;;3.50;61.10;;;;;;5115600;28;20020;-66
2022/03/06 05:59:20;;;;;;;22.35;10.88;;;3.40;61.10;;;;;;5115487;28;20024;-65
2022/03/06 06:01:46;;;;;;;21.88;10.93;;;3.40;61.00;;;;;;5115475;28;20062;-65
2022/03/06 06:04:14;;;;;;;22.90;11.38;;;3.40;61.00;;;;;;5115428;28;20096;-65
2022/03/06 06:06:40;;;;;;;24.50;11.60;;;3.50;61.00;;;;;;5115332;28;20083;-66
2022/03/06 06:09:06;;;;;;;24.65;11.20;;;3.50;60.90;;;;;;5115306;28;20021;-66
2022/03/06 06:11:31;;;;;;;20.67;11.82;;;3.50;61.00;;;;;;5115265;28;20062;-65
2022/03/06 06:13:57;;;;;;;22.45;12.02;;;3.50;61.00;;;;;;5115196;28;20028;-65
2022/03/06 06:16:22;;;;;;;22.02;10.88;;;3.40;61.00;;;;;;5115149;28;20028;-66
2022/03/06 06:18:48;;;;;;;23.55;11.43;;;3.40;61.00;;;;;;5115095;28;20032;-66
2022/03/06 06:21:16;;;;;;;21.77;11.45;;;3.40;61.00;;;;;;5115078;28;20032;-66
2022/03/06 06:23:42;;;;;;;23.25;11.57;;;3.40;61.20;;;;;;5114684;28;20031;-66
2022/03/06 06:26:08;;;;;;;23.33;11.73;;;3.40;61.20;;;;;;5114917;28;20028;-66
2022/03/06 06:28:34;;;;;;;23.80;10.60;;;3.40;61.30;;;;;;5114962;28;20027;-66
2022/03/06 06:31:00;;;;;;;23.50;11.45;;;3.40;61.20;;;;;;5114878;28;20016;-65
2022/03/06 06:33:27;;;;;;;21.33;10.98;;;3.40;61.50;;;;;;5114855;28;20079;-66
2022/03/06 06:35:52;;;;;;;23.33;10.88;;;3.40;61.30;;;;;;5114786;28;20020;-65
2022/03/06 06:38:20;;;;;;;24.67;10.82;;;3.40;61.30;;;;;;5114732;28;20107;-66
2022/03/06 06:40:47;;;;;;;23.35;11.13;;;3.40;61.20;;;;;;5114841;28;20036;-65
2022/03/06 06:43:12;;;;;;;22.17;12.05;;;3.40;61.30;;;;;;5114694;28;20020;-65
2022/03/06 06:45:38;;;;;;;20.42;11.35;;;3.40;61.20;;;;;;5114536;28;20032;-66
2022/03/06 06:48:04;;;;;;;20.67;10.40;;;3.40;61.30;;;;;;5114578;28;20028;-66
2022/03/06 06:50:30;;;;;;;22.25;10.88;;;3.40;61.40;;;;;;5114318;28;20100;-66
2022/03/06 06:52:55;;;;;;;21.52;10.73;;;3.40;61.50;;;;;;5114632;28;20083;-66
2022/03/06 06:55:21;;;;;;;20.20;10.75;;;3.40;61.80;;;;;;5114429;28;20028;-65
2022/03/06 06:57:46;;;;;;;20.52;11.18;;;3.30;61.80;;;;;;5114371;28;20043;-66
2022/03/06 07:00:12;;;;;;;22.17;11.05;;;3.40;61.70;;;;;;5114311;28;20035;-66
2022/03/06 07:02:39;;;;;;;21.90;10.63;;;3.40;61.70;;;;;;5114416;28;20028;-66
2022/03/06 07:05:05;;;;;;;22.08;10.82;;;3.50;61.80;;;;;;5114336;28;20035;-66
2022/03/06 07:07:30;;;;;;;17.88;9.98;;;3.50;61.90;;;;;;5114118;28;20017;-66
2022/03/06 07:09:56;;;;;;;21.30;10.95;;;3.50;61.80;;;;;;5114155;28;20590;-66
2022/03/06 07:12:22;;;;;;;21.35;10.95;;;3.50;62.00;;;;;;5114096;28;20038;-66
2022/03/06 07:14:47;;;;;;;19.48;10.57;;;3.40;61.70;;;;;;5114056;28;20020;-66
2022/03/06 07:17:13;;;;;;;29.42;13.68;;;3.40;61.80;;;;;;5113997;28;20032;-66
2022/03/06 07:19:38;;;;;;;25.48;12.38;;;3.40;62.10;;;;;;5114074;28;20020;-67
2022/03/06 07:22:04;;;;;;;24.80;11.88;;;3.50;62.10;;;;;;5113971;28;20505;-67
2022/03/06 07:24:30;;;;;;;21.80;10.52;;;3.50;62.20;;;;;;5113920;28;20058;-67
2022/03/06 07:26:55;;;;;;;22.15;11.05;;;3.50;62.30;;;;;;5113794;28;20040;-67
2022/03/06 07:29:21;;;;;;;21.85;10.50;;;3.50;62.50;;;;;;5113841;28;20110;-67
2022/03/06 07:31:47;;;;;;;21.08;10.45;;;3.50;62.60;;;;;;5113763;28;20120;-66
2022/03/06 07:34:12;;;;;;;19.55;11.10;;;3.50;62.50;;;;;;5113787;28;20026;-66
2022/03/06 07:36:38;;;;;;;20.27;10.85;;;3.60;62.90;;;;;;5113071;28;20020;-66
2022/03/06 07:39:03;;;;;;;20.00;10.30;;;3.60;62.90;;;;;;5113714;28;20390;-66
2022/03/06 07:41:29;;;;;;;19.35;10.63;;;3.60;62.80;;;;;;5113665;28;20027;-66
2022/03/06 07:43:55;;;;;;;20.70;10.55;;;3.60;63.00;;;;;;5113605;28;20120;-66
2022/03/06 07:46:20;;;;;;;20.70;10.80;;;3.70;63.10;;;;;;5095777;28;20095;-66
2022/03/06 07:48:46;;;;;;;22.00;10.93;;;3.70;63.10;;;;;;5113534;28;20028;-67
2022/03/06 07:51:11;;;;;;;20.25;11.18;;;3.70;63.20;;;;;;5113359;28;20052;-67
2022/03/06 07:53:37;;;;;;;20.92;11.00;;;3.70;63.50;;;;;;5113447;28;20054;-67
2022/03/06 07:56:03;;;;;;;21.50;10.70;;;3.70;63.40;;;;;;5113495;28;20150;-67
2022/03/06 07:58:29;;;;;;;22.17;10.93;;;3.70;63.50;;;;;;5113411;28;20471;-67
2022/03/06 08:00:54;;;;;;;21.10;10.30;;;3.70;63.90;;;;;;5113413;28;20052;-67
2022/03/06 08:03:20;;;;;;;23.45;11.27;;;3.80;63.70;;;;;;5113342;28;20087;-67
2022/03/06 08:05:45;;;;;;;19.85;10.38;;;3.80;63.90;;;;;;5113267;28;20111;-66
2022/03/06 08:08:11;;;;;;;22.08;10.73;;;3.80;63.90;;;;;;5113293;28;20043;-66
2022/03/06 08:10:37;;;;;;;21.08;10.68;;;3.90;63.70;;;;;;5113288;28;20052;-66
2022/03/06 08:13:02;;;;;;;20.88;10.75;;;3.90;63.70;;;;;;5113257;28;20038;-66
2022/03/06 08:15:28;;;;;;;21.63;11.25;;;4.00;63.90;;;;;;5113300;28;20044;-66
2022/03/06 08:17:54;;;;;;;20.48;10.80;;;4.00;63.60;;;;;;5113200;28;20141;-66
2022/03/06 08:20:19;;;;;;;19.90;11.40;;;4.10;63.70;;;;;;5113213;28;20031;-66
2022/03/06 08:22:45;;;;;;;20.92;10.50;;;4.20;64.10;;;;;;5113032;28;20032;-66
2022/03/06 08:25:11;;;;;;;19.83;10.75;;;4.30;64.00;;;;;;5113109;28;20021;-66
2022/03/06 08:27:36;;;;;;;17.80;10.57;;;4.50;64.00;;;;;;5113018;28;20491;-67
2022/03/06 08:30:04;;;;;;;20.83;11.30;;;4.50;64.20;;;;;;5113124;28;20046;-67
2022/03/06 08:32:30;;;;;;;21.02;11.07;;;4.60;63.10;;;;;;5113031;28;20115;-67
2022/03/06 08:34:56;;;;;;;19.88;11.30;;;4.60;63.40;;;;;;5113022;28;20036;-67
2022/03/06 08:37:22;;;;;;;21.17;10.68;;;4.70;63.90;;;;;;5113171;28;20092;-67
2022/03/06 08:39:49;;;;;;;24.02;11.57;;;4.80;63.40;;;;;;5113050;28;20033;-67
2022/03/06 08:42:15;;;;;;;20.73;11.65;;;4.80;63.10;;;;;;5112995;28;20088;-67
2022/03/06 08:44:42;;;;;;;21.10;11.43;;;5.00;63.30;;;;;;5112982;28;20024;-67
2022/03/06 08:47:07;;;;;;;20.48;11.05;;;5.20;63.40;;;;;;5113768;28;20020;-67
2022/03/06 08:49:33;;;;;;;19.95;10.75;;;5.40;63.30;;;;;;5116818;28;20050;-66
2022/03/06 08:51:59;;;;;;;18.80;10.70;;;5.50;62.50;;;;;;5116618;28;20059;-66
2022/03/06 08:54:25;;;;;;;20.45;11.18;;;5.50;62.10;;;;;;5116832;28;20025;-66
2022/03/06 08:56:50;;;;;;;17.40;10.40;;;5.60;62.10;;;;;;5116684;28;20032;-66
2022/03/06 08:59:19;;;;;;;22.48;10.85;;;5.50;61.10;;;;;;5116673;28;20043;-66
2022/03/06 09:01:45;;;;;;;20.55;11.15;;;5.60;61.50;;;;;;5116768;28;20024;-66
2022/03/06 09:04:11;;;;;;;18.33;11.10;;;5.60;61.30;;;;;;5116707;28;20035;-66
2022/03/06 09:06:38;;;;;;;19.10;11.07;;;5.70;61.80;;;;;;5116438;28;20063;-66
2022/03/06 09:09:03;;;;;;;18.23;11.38;;;5.90;62.10;;;;;;5116477;28;20069;-66
2022/03/06 09:11:29;;;;;;;19.83;11.90;;;6.10;61.80;;;;;;5116448;28;20048;-66
2022/03/06 09:13:55;;;;;;;18.83;10.73;;;6.20;61.30;;;;;;5116387;28;20056;-66
2022/03/06 09:16:20;;;;;;;19.65;10.63;;;6.20;60.90;;;;;;5116398;28;20024;-66
2022/03/06 09:18:47;;;;;;;18.25;10.82;;;6.30;60.50;;;;;;5116288;28;20043;-66
2022/03/06 09:21:14;;;;;;;19.75;11.13;;;6.50;60.30;;;;;;5116207;28;20085;-67
2022/03/06 09:23:40;;;;;;;18.70;10.98;;;6.60;60.10;;;;;;5116142;28;20028;-66
2022/03/06 09:26:05;;;;;;;16.83;10.55;;;6.70;59.90;;;;;;5116113;28;20032;-66
2022/03/06 09:28:31;;;;;;;21.15;11.55;;;6.80;59.70;;;;;;5116109;28;20035;-66
2022/03/06 09:30:56;;;;;;;17.88;10.43;;;6.90;59.70;;;;;;5116046;28;20028;-66
2022/03/06 09:33:23;;;;;;;19.33;11.02;;;7.00;59.60;;;;;;5115992;28;20028;-66
2022/03/06 09:35:49;;;;;;;17.27;9.65;;;7.20;59.50;;;;;;5115985;28;20032;-66
2022/03/06 09:38:15;;;;;;;15.85;10.35;;;7.20;58.20;;;;;;5115880;28;20132;-66
2022/03/06 09:40:44;;;;;;;16.95;9.73;;;7.10;57.90;;;;;;5115853;28;20038;-66
2022/03/06 09:43:14;;;;;;;15.18;9.75;;;7.10;58.20;;;;;;5115948;28;20051;-64
2022/03/06 09:45:41;;;;;;;19.92;11.20;;;7.10;58.20;;;;;;5115544;28;20059;-65
2022/03/06 09:48:08;;;;;;;16.10;10.07;;;7.20;58.90;;;;;;5115669;28;20024;-65
2022/03/06 09:50:34;;;;;;;17.88;10.43;;;7.30;58.60;;;;;;5115475;28;20025;-65
2022/03/06 09:52:59;;;;;;;16.02;10.23;;;7.40;58.70;;;;;;5115747;28;20035;-65
2022/03/06 09:55:27;;;;;;;18.02;10.50;;;7.50;58.00;;;;;;5115556;28;20038;-65
2022/03/06 09:57:54;;;;;;;16.40;9.48;;;7.60;57.90;;;;;;5115551;28;20109;-65
2022/03/06 10:00:20;;;;;;;16.20;10.18;;;7.60;57.20;;;;;;5114828;28;20042;-65
2022/03/06 10:02:57;;;;;;;17.83;10.55;;;7.60;57.50;;;;;;5115389;28;20103;-65
2022/03/06 10:05:38;;;;;;;15.45;9.55;;;7.80;57.70;;;;;;5115431;28;20035;-65
2022/03/06 10:08:23;;;;;;;16.13;9.98;;;7.90;57.30;;;;;;5115375;28;20043;-65
2022/03/06 10:11:05;;;;;;;14.05;9.70;;;7.80;56.10;;;;;;5115281;28;20024;-65
2022/03/06 10:13:39;;;;;;;15.57;10.00;;;7.80;56.30;;;;;;5115282;28;20024;-65
2022/03/06 10:16:12;;;;;;;16.17;9.32;;;7.80;56.90;;;;;;5115144;28;20047;-65
2022/03/06 10:18:49;;;;;;;17.20;9.88;;;7.90;57.00;;;;;;5115011;28;20028;-65
2022/03/06 10:21:22;;;;;;;15.23;9.95;;;8.00;56.60;;;;;;5115005;28;20050;-65
2022/03/06 10:23:52;;;;;;;17.67;9.25;;;8.00;56.10;;;;;;5115022;28;20016;-65
2022/03/06 10:26:26;;;;;;;14.48;9.07;;;8.00;55.50;;;;;;5115122;28;20020;-65
2022/03/06 10:28:58;;;;;;;15.68;9.63;;;8.00;55.90;;;;;;5115081;28;20020;-65
2022/03/06 10:31:26;;;;;;;15.40;8.55;;;8.10;55.40;;;;;;5114960;28;20016;-65
2022/03/06 10:34:01;;;;;;;16.65;10.27;;;8.00;56.10;;;;;;5114728;28;20398;-65
2022/03/06 10:36:53;;;;;;;17.23;9.82;;;8.10;56.50;;;;;;5114769;28;20032;-65
2022/03/06 10:39:21;;;;;;;14.10;9.32;;;8.30;55.50;;;;;;5111457;28;20036;-65
2022/03/06 10:41:52;;;;;;;15.18;9.73;;;8.40;55.50;;;;;;5114674;28;20028;-65
2022/03/06 10:44:20;;;;;;;15.50;9.38;;;8.50;55.20;;;;;;5114661;28;20031;-65
2022/03/06 10:47:03;;;;;;;14.65;9.55;;;8.60;55.10;;;;;;5114524;28;20444;-65
2022/03/06 10:49:29;;;;;;;;;;;8.80;53.50;;;;;;5115071;28;20063;-65
2022/03/06 10:51:54;;;;;;;14.35;9.27;;;8.80;53.30;;;;;;5114315;28;19924;-65
2022/03/06 10:54:20;;;;;;;14.60;9.30;;;8.80;53.90;;;;;;5114437;28;20024;-65
2022/03/06 10:56:50;;;;;;;15.95;8.77;;;8.90;53.60;;;;;;5114397;28;20031;-65
2022/03/06 10:59:26;;;;;;;14.88;8.75;;;8.90;53.70;;;;;;5114422;28;20435;-65
2022/03/06 11:01:52;;;;;;;12.77;8.85;;;9.00;53.50;;;;;;5114334;28;20020;-65
2022/03/06 11:04:19;;;;;;;15.20;9.80;;;9.00;53.10;;;;;;5114269;28;20030;-65
2022/03/06 11:06:46;;;;;;;15.25;9.77;;;9.20;52.80;;;;;;5114144;28;20039;-64
2022/03/06 11:09:16;;;;;;;13.85;9.55;;;9.20;52.70;;;;;;5114255;28;20047;-65
2022/03/06 11:11:47;;;;;;;15.98;9.88;;;9.20;52.10;;;;;;5113199;28;20027;-65
2022/03/06 11:14:14;;;;;;;14.02;8.82;;;9.20;51.50;;;;;;5114245;28;20041;-65
2022/03/06 11:16:40;;;;;;;13.98;9.13;;;9.20;51.10;;;;;;5114009;28;20032;-65
2022/03/06 11:19:07;;;;;;;15.25;9.23;;;9.20;51.40;;;;;;5113949;28;20028;-65
2022/03/06 11:21:35;;;;;;;15.63;9.00;;;9.30;50.90;;;;;;5113925;28;20030;-65
2022/03/06 11:24:17;;;;;;;15.30;9.90;;;9.30;49.30;;;;;;5113827;28;20028;-65
2022/03/06 11:27:12;;;;;;;14.25;9.70;;;9.40;49.10;;;;;;5113796;28;20048;-65
2022/03/06 11:30:18;;;;;;;13.90;8.80;;;9.50;49.40;;;;;;5113817;28;20023;-65
2022/03/06 11:32:47;;;;;;;13.23;8.73;;;9.50;48.40;;;;;;5113919;28;20095;-65
2022/03/06 11:35:18;;;;;;;16.42;9.63;;;9.60;49.00;;;;;;5113785;28;20020;-65
2022/03/06 11:37:51;;;;;;;13.25;8.68;;;9.70;48.30;;;;;;5113828;28;20047;-65
2022/03/06 11:40:45;;;;;;;14.38;9.05;;;9.60;48.20;;;;;;5113658;28;20028;-65
2022/03/06 11:43:38;;;;;;;15.55;9.02;;;9.70;48.20;;;;;;5113683;28;20028;-65
2022/03/06 11:46:06;;;;;;;12.75;8.98;;;9.80;47.70;;;;;;5113569;28;20043;-65
2022/03/06 11:48:34;;;;;;;14.15;8.68;;;9.90;47.50;;;;;;5113532;28;20024;-65
2022/03/06 11:51:15;;;;;;;13.48;8.95;;;9.90;47.10;;;;;;5113324;28;20048;-65
2022/03/06 11:54:05;;;;;;;13.98;9.02;;;9.90;46.60;;;;;;5113429;28;20020;-65
2022/03/06 11:56:39;;;;;;;13.70;8.93;;;10.00;47.00;;;;;;5113618;28;20020;-65
2022/03/06 11:59:16;;;;;;;16.65;9.23;;;10.10;46.50;;;;;;5113573;28;20020;-65
2022/03/06 12:02:05;;;;;;;13.13;8.45;;;10.10;46.60;;;;;;5113370;28;20084;-65
2022/03/06 12:04:33;;;;;;;13.27;8.75;;;10.10;46.00;;;;;;5113419;28;20080;-65
2022/03/06 12:07:04;;;;;;;13.00;8.57;;;10.20;45.40;;;;;;5113281;28;20024;-65
2022/03/06 12:09:32;;;;;;;13.95;8.50;;;10.30;46.10;;;;;;5113363;28;20031;-65
2022/03/06 12:12:02;;;;;;;13.93;8.32;;;10.40;46.10;;;;;;5113285;28;20017;-65
2022/03/06 12:14:39;;;;;;;13.55;8.70;;;10.40;44.50;;;;;;5113251;28;20526;-65
2022/03/06 12:17:07;;;;;;;13.20;8.35;;;10.40;44.10;;;;;;5113232;28;20029;-65
2022/03/06 12:19:33;;;;;;;11.85;8.57;;;10.40;43.80;;;;;;5113141;28;20020;-65
2022/03/06 12:22:27;;;;;;;13.50;8.57;;;10.50;43.70;;;;;;5113869;28;20034;-65
2022/03/06 12:25:08;;;;;;;13.20;8.07;;;10.70;44.00;;;;;;5099638;28;20036;-65
2022/03/06 12:27:36;;;;;;;12.88;7.93;;;10.80;43.50;;;;;;5117171;28;20038;-65
2022/03/06 12:30:17;;;;;;;14.07;8.25;;;10.70;42.20;;;;;;5117222;28;20035;-65
2022/03/06 12:32:43;;;;;;;13.07;8.10;;;10.60;41.70;;;;;;5117241;28;20024;-65
2022/03/06 12:35:10;;;;;;;11.68;7.78;;;10.40;42.10;;;;;;5117144;28;20024;-65
2022/03/06 12:37:38;;;;;;;11.82;7.90;;;10.30;42.50;;;;;;5116962;28;20032;-65
2022/03/06 12:40:12;;;;;;;12.18;8.05;;;10.20;43.40;;;;;;5117156;28;20038;-65